createdAt,value
2022-09-06T00:00:35.073Z,15.71
2022-09-06T00:01:34.686Z,15.72
2022-09-06T00:02:34.695Z,15.74
2022-09-06T00:03:34.727Z,15.74
2022-09-06T00:04:34.696Z,15.72
2022-09-06T00:05:34.965Z,15.71
2022-09-06T00:06:34.631Z,15.68
2022-09-06T00:07:34.606Z,15.62
2022-09-06T00:08:34.577Z,15.59
2022-09-06T00:09:34.555Z,15.57
2022-09-06T00:10:34.993Z,15.54
2022-09-06T00:11:34.531Z,15.53
2022-09-06T00:12:34.526Z,15.51
2022-09-06T00:13:34.683Z,15.49
2022-09-06T00:14:34.653Z,15.46
2022-09-06T00:15:35.002Z,15.46
2022-09-06T00:16:34.463Z,15.47
2022-09-06T00:17:34.472Z,15.51
2022-09-06T00:18:34.445Z,15.53
2022-09-06T00:19:34.450Z,15.56
2022-09-06T00:20:34.782Z,15.59
2022-09-06T00:21:34.443Z,15.59
2022-09-06T00:22:34.432Z,15.62
2022-09-06T00:23:34.519Z,15.67
2022-09-06T00:24:34.391Z,15.68
2022-09-06T00:25:34.352Z,15.68
2022-09-06T00:26:34.760Z,15.64
2022-09-06T00:27:34.332Z,15.62
2022-09-06T00:28:34.301Z,15.62
2022-09-06T00:29:34.373Z,15.57
2022-09-06T00:30:34.818Z,15.56
2022-09-06T00:31:34.744Z,15.54
2022-09-06T00:32:34.260Z,15.50
2022-09-06T00:33:34.252Z,15.46
2022-09-06T00:34:34.230Z,15.43
2022-09-06T00:35:34.218Z,15.38
2022-09-06T00:36:34.591Z,15.41
2022-09-06T00:37:34.200Z,15.38
2022-09-06T00:38:34.191Z,15.36
2022-09-06T00:39:34.212Z,15.35
2022-09-06T00:40:34.164Z,15.34
2022-09-06T00:41:34.491Z,15.32
2022-09-06T00:42:34.131Z,15.31
2022-09-06T00:43:34.130Z,15.31
2022-09-06T00:44:34.121Z,15.29
2022-09-06T00:45:34.098Z,15.27
2022-09-06T00:46:34.589Z,15.25
2022-09-06T00:47:34.095Z,15.21
2022-09-06T00:48:34.059Z,15.19
2022-09-06T00:49:34.048Z,15.16
2022-09-06T00:50:34.036Z,15.14
2022-09-06T00:51:34.457Z,15.14
2022-09-06T00:52:34.017Z,15.11
2022-09-06T00:53:33.997Z,15.10
2022-09-06T00:54:33.973Z,15.07
2022-09-06T00:55:33.949Z,15.07
2022-09-06T00:56:34.307Z,15.07
2022-09-06T00:57:33.933Z,15.07
2022-09-06T00:58:33.927Z,15.09
2022-09-06T00:59:33.918Z,15.03
2022-09-06T01:00:33.929Z,15.01
2022-09-06T01:01:34.291Z,14.96
2022-09-06T01:02:33.916Z,14.95
2022-09-06T01:03:33.858Z,14.94
2022-09-06T01:04:33.856Z,14.94
2022-09-06T01:05:33.846Z,14.92
2022-09-06T01:06:34.256Z,14.88
2022-09-06T01:07:33.799Z,14.89
2022-09-06T01:08:33.917Z,14.88
2022-09-06T01:09:33.831Z,14.88
2022-09-06T01:10:33.774Z,14.89
2022-09-06T01:11:34.096Z,14.92
2022-09-06T01:12:33.744Z,14.98
2022-09-06T01:13:33.726Z,15.06
2022-09-06T01:14:33.737Z,15.06
2022-09-06T01:15:33.745Z,15.07
2022-09-06T01:16:34.034Z,15.06
2022-09-06T01:17:33.661Z,15.03
2022-09-06T01:18:33.672Z,14.99
2022-09-06T01:19:33.734Z,14.98
2022-09-06T01:20:34.196Z,14.95
2022-09-06T01:21:34.105Z,14.94
2022-09-06T01:22:33.625Z,14.98
2022-09-06T01:23:33.584Z,15.02
2022-09-06T01:24:33.595Z,15.03
2022-09-06T01:25:33.556Z,15.06
2022-09-06T01:26:33.986Z,15.06
2022-09-06T01:27:33.535Z,15.06
2022-09-06T01:28:33.513Z,15.07
2022-09-06T01:29:33.495Z,15.07
2022-09-06T01:30:33.579Z,15.06
2022-09-06T01:31:33.843Z,15.03
2022-09-06T01:32:33.454Z,15.02
2022-09-06T01:33:33.444Z,15.01
2022-09-06T01:34:33.443Z,15.01
2022-09-06T01:35:33.453Z,14.99
2022-09-06T01:36:33.773Z,14.99
2022-09-06T01:37:33.399Z,14.99
2022-09-06T01:38:33.384Z,14.99
2022-09-06T01:39:33.477Z,15.01
2022-09-06T01:40:33.375Z,15.02
2022-09-06T01:41:33.772Z,15.01
2022-09-06T01:42:33.370Z,15.02
2022-09-06T01:43:33.347Z,15.01
2022-09-06T01:44:33.316Z,15.02
2022-09-06T01:45:33.302Z,15.02
2022-09-06T01:46:33.774Z,15.02
2022-09-06T01:47:33.270Z,15.01
2022-09-06T01:48:33.253Z,14.99
2022-09-06T01:49:33.244Z,14.98
2022-09-06T01:50:33.281Z,14.99
2022-09-06T01:51:33.862Z,15.01
2022-09-06T01:52:33.193Z,15.01
2022-09-06T01:53:33.188Z,15.01
2022-09-06T01:54:33.161Z,14.99
2022-09-06T01:55:33.191Z,14.98
2022-09-06T01:56:33.610Z,14.94
2022-09-06T01:57:33.132Z,14.92
2022-09-06T01:58:33.115Z,14.89
2022-09-06T01:59:33.111Z,14.91
2022-09-06T02:00:33.111Z,14.92
2022-09-06T02:01:33.547Z,14.92
2022-09-06T02:02:33.135Z,14.94
2022-09-06T02:03:33.049Z,14.96
2022-09-06T02:04:33.039Z,15.02
2022-09-06T02:05:33.048Z,15.06
2022-09-06T02:06:33.460Z,15.11
2022-09-06T02:07:32.991Z,15.13
2022-09-06T02:08:32.987Z,15.16
2022-09-06T02:09:33.007Z,15.17
2022-09-06T02:10:32.979Z,15.20
2022-09-06T02:11:33.368Z,15.23
2022-09-06T02:12:32.931Z,15.21
2022-09-06T02:13:32.925Z,15.21
2022-09-06T02:14:32.917Z,15.21
2022-09-06T02:15:32.899Z,15.23
2022-09-06T02:16:33.291Z,15.25
2022-09-06T02:17:32.880Z,15.27
2022-09-06T02:18:33.130Z,15.28
2022-09-06T02:19:32.843Z,15.28
2022-09-06T02:20:32.828Z,15.28
2022-09-06T02:21:32.833Z,15.25
2022-09-06T02:22:33.235Z,15.23
2022-09-06T02:23:32.786Z,15.20
2022-09-06T02:24:32.787Z,15.17
2022-09-06T02:25:32.755Z,15.17
2022-09-06T02:26:32.775Z,15.16
2022-09-06T02:27:33.158Z,15.14
2022-09-06T02:28:32.793Z,15.14
2022-09-06T02:29:32.905Z,15.14
2022-09-06T02:30:32.846Z,15.13
2022-09-06T02:31:32.697Z,15.13
2022-09-06T02:32:33.087Z,15.11
2022-09-06T02:33:32.672Z,15.10
2022-09-06T02:34:32.637Z,15.09
2022-09-06T02:35:32.636Z,15.09
2022-09-06T02:36:32.639Z,15.07
2022-09-06T02:37:32.956Z,15.10
2022-09-06T02:38:32.736Z,15.13
2022-09-06T02:39:32.669Z,15.11
2022-09-06T02:40:33.258Z,15.13
2022-09-06T02:41:32.545Z,15.16
2022-09-06T02:42:32.954Z,15.17
2022-09-06T02:43:32.535Z,15.19
2022-09-06T02:44:32.514Z,15.25
2022-09-06T02:45:32.504Z,15.29
2022-09-06T02:46:32.991Z,15.36
2022-09-06T02:47:32.477Z,15.43
2022-09-06T02:48:32.489Z,15.49
2022-09-06T02:49:32.435Z,15.51
2022-09-06T02:50:32.435Z,15.57
2022-09-06T02:51:32.436Z,15.64
2022-09-06T02:52:32.753Z,15.67
2022-09-06T02:53:32.446Z,15.69
2022-09-06T02:54:32.376Z,15.71
2022-09-06T02:55:32.362Z,15.72
2022-09-06T02:56:32.344Z,15.74
2022-09-06T02:57:32.695Z,15.75
2022-09-06T02:58:32.335Z,15.75
2022-09-06T02:59:32.374Z,15.78
2022-09-06T03:00:32.295Z,15.80
2022-09-06T03:01:32.349Z,15.80
2022-09-06T03:02:32.887Z,15.83
2022-09-06T03:03:32.260Z,15.83
2022-09-06T03:04:32.253Z,15.83
2022-09-06T03:05:32.251Z,15.84
2022-09-06T03:06:32.221Z,15.84
2022-09-06T03:07:32.623Z,15.87
2022-09-06T03:08:32.186Z,15.89
2022-09-06T03:09:32.172Z,15.92
2022-09-06T03:10:32.172Z,15.93
2022-09-06T03:11:32.143Z,15.94
2022-09-06T03:12:32.534Z,15.97
2022-09-06T03:13:32.150Z,16.02
2022-09-06T03:14:32.112Z,16.05
2022-09-06T03:15:32.244Z,16.11
2022-09-06T03:16:32.162Z,16.15
2022-09-06T03:17:32.413Z,16.20
2022-09-06T03:18:32.054Z,16.21
2022-09-06T03:19:32.035Z,16.24
2022-09-06T03:20:36.837Z,16.24
2022-09-06T03:21:33.022Z,16.28
2022-09-06T03:22:32.423Z,16.27
2022-09-06T03:23:32.011Z,16.28
2022-09-06T03:24:31.962Z,16.25
2022-09-06T03:25:31.962Z,16.27
2022-09-06T03:26:31.941Z,16.23
2022-09-06T03:27:32.350Z,16.23
2022-09-06T03:28:31.920Z,16.15
2022-09-06T03:29:31.899Z,16.15
2022-09-06T03:30:31.958Z,16.17
2022-09-06T03:31:31.880Z,16.20
2022-09-06T03:32:32.290Z,16.23
2022-09-06T03:33:31.848Z,16.25
2022-09-06T03:34:31.849Z,16.27
2022-09-06T03:35:31.810Z,16.28
2022-09-06T03:36:31.799Z,16.33
2022-09-06T03:37:39.158Z,16.34
2022-09-06T03:38:38.786Z,16.39
2022-09-06T03:39:31.806Z,16.42
2022-09-06T03:40:31.789Z,16.46
2022-09-06T03:41:31.734Z,16.53
2022-09-06T03:42:32.063Z,16.56
2022-09-06T03:43:31.720Z,16.58
2022-09-06T03:44:31.704Z,16.58
2022-09-06T03:45:31.778Z,16.61
2022-09-06T03:46:31.680Z,16.63
2022-09-06T03:47:32.083Z,16.63
2022-09-06T03:48:31.654Z,16.63
2022-09-06T03:49:31.666Z,16.63
2022-09-06T03:50:31.622Z,16.64
2022-09-06T03:51:31.618Z,16.63
2022-09-06T03:52:32.031Z,16.61
2022-09-06T03:53:31.618Z,16.61
2022-09-06T03:54:31.581Z,16.64
2022-09-06T03:55:31.570Z,16.67
2022-09-06T03:56:31.552Z,16.67
2022-09-06T03:57:31.993Z,16.64
2022-09-06T03:58:31.532Z,16.61
2022-09-06T03:59:31.511Z,16.58
2022-09-06T04:00:37.389Z,16.56
2022-09-06T04:01:31.554Z,16.52
2022-09-06T04:02:32.006Z,16.49
2022-09-06T04:03:31.450Z,16.45
2022-09-06T04:04:31.451Z,16.42
2022-09-06T04:05:31.434Z,16.39
2022-09-06T04:06:31.438Z,16.34
2022-09-06T04:07:31.874Z,16.33
2022-09-06T04:08:32.086Z,16.28
2022-09-06T04:09:31.619Z,16.25
2022-09-06T04:10:31.385Z,16.23
2022-09-06T04:11:31.344Z,16.20
2022-09-06T04:12:31.358Z,16.12
2022-09-06T04:13:31.790Z,16.09
2022-09-06T04:14:31.298Z,16.04
2022-09-06T04:15:31.301Z,16.07
2022-09-06T04:16:31.338Z,16.14
2022-09-06T04:17:31.285Z,16.15
2022-09-06T04:18:31.660Z,16.12
2022-09-06T04:19:31.259Z,16.12
2022-09-06T04:20:31.228Z,16.07
2022-09-06T04:21:31.218Z,16.05
2022-09-06T04:22:31.608Z,16.01
2022-09-06T04:23:31.208Z,16.01
2022-09-06T04:24:31.192Z,15.96
2022-09-06T04:25:31.199Z,15.96
2022-09-06T04:26:31.217Z,15.92
2022-09-06T04:27:31.305Z,15.89
2022-09-06T04:28:31.547Z,15.89
2022-09-06T04:29:31.147Z,15.92
2022-09-06T04:30:31.367Z,15.89
2022-09-06T04:31:31.131Z,15.87
2022-09-06T04:32:31.084Z,15.86
2022-09-06T04:33:31.435Z,15.83
2022-09-06T04:34:31.072Z,15.82
2022-09-06T04:35:31.027Z,15.76
2022-09-06T04:36:31.069Z,15.78
2022-09-06T04:37:31.007Z,15.78
2022-09-06T04:38:31.469Z,15.80
2022-09-06T04:39:31.040Z,15.82
2022-09-06T04:40:30.956Z,15.82
2022-09-06T04:41:30.938Z,15.82
2022-09-06T04:42:30.930Z,15.82
2022-09-06T04:43:31.319Z,15.83
2022-09-06T04:44:30.905Z,15.86
2022-09-06T04:45:30.960Z,15.89
2022-09-06T04:46:30.876Z,15.87
2022-09-06T04:47:30.879Z,15.89
2022-09-06T04:48:31.279Z,15.87
2022-09-06T04:49:30.846Z,15.87
2022-09-06T04:50:30.865Z,15.83
2022-09-06T04:51:31.633Z,15.87
2022-09-06T04:52:30.901Z,15.92
2022-09-06T04:53:31.478Z,15.94
2022-09-06T04:54:31.904Z,15.93
2022-09-06T04:55:30.824Z,15.90
2022-09-06T04:56:30.903Z,15.86
2022-09-06T04:57:30.734Z,15.82
2022-09-06T04:58:31.171Z,15.80
2022-09-06T04:59:30.724Z,15.76
2022-09-06T05:00:30.690Z,15.78
2022-09-06T05:01:30.739Z,15.78
2022-09-06T05:02:30.735Z,15.80
2022-09-06T05:03:31.096Z,15.80
2022-09-06T05:04:30.641Z,15.75
2022-09-06T05:05:30.662Z,15.74
2022-09-06T05:06:30.604Z,15.72
2022-09-06T05:07:30.605Z,15.74
2022-09-06T05:08:30.923Z,15.74
2022-09-06T05:09:30.582Z,15.72
2022-09-06T05:10:30.577Z,15.72
2022-09-06T05:11:30.553Z,15.72
2022-09-06T05:12:30.525Z,15.72
2022-09-06T05:13:30.952Z,15.74
2022-09-06T05:14:30.493Z,15.78
2022-09-06T05:15:30.489Z,15.80
2022-09-06T05:16:30.504Z,15.84
2022-09-06T05:17:30.522Z,15.86
2022-09-06T05:18:31.092Z,15.90
2022-09-06T05:19:30.446Z,15.90
2022-09-06T05:20:30.437Z,15.94
2022-09-06T05:21:30.418Z,15.96
2022-09-06T05:22:30.411Z,16.01
2022-09-06T05:23:30.835Z,16.05
2022-09-06T05:24:30.462Z,16.08
2022-09-06T05:25:30.372Z,16.12
2022-09-06T05:26:30.340Z,16.20
2022-09-06T05:27:30.347Z,16.23
2022-09-06T05:28:30.381Z,16.28
2022-09-06T05:29:30.679Z,16.33
2022-09-06T05:30:30.304Z,16.38
2022-09-06T05:31:30.345Z,16.45
2022-09-06T05:32:30.268Z,16.46
2022-09-06T05:33:30.699Z,16.52
2022-09-06T05:34:30.301Z,16.60
2022-09-06T05:35:30.249Z,16.63
2022-09-06T05:36:30.236Z,16.63
2022-09-06T05:37:30.203Z,16.64
2022-09-06T05:38:30.769Z,16.71
2022-09-06T05:39:30.228Z,16.75
2022-09-06T05:40:30.187Z,16.79
2022-09-06T05:41:30.169Z,16.86
2022-09-06T05:42:30.140Z,16.88
2022-09-06T05:43:30.569Z,16.91
2022-09-06T05:44:30.179Z,16.93
2022-09-06T05:45:30.155Z,16.97
2022-09-06T05:46:30.099Z,17.03
2022-09-06T05:47:30.079Z,17.04
2022-09-06T05:48:34.609Z,17.12
2022-09-06T05:49:31.507Z,17.16
2022-09-06T05:50:30.037Z,17.19
2022-09-06T05:51:30.031Z,17.22
2022-09-06T05:52:30.037Z,17.21
2022-09-06T05:53:30.430Z,17.25
2022-09-06T05:54:29.987Z,17.28
2022-09-06T05:55:29.978Z,17.31
2022-09-06T05:56:29.948Z,17.33
2022-09-06T05:57:29.948Z,17.38
2022-09-06T05:58:30.367Z,17.38
2022-09-06T05:59:29.926Z,17.44
2022-09-06T06:00:29.927Z,17.44
2022-09-06T06:01:30.023Z,17.46
2022-09-06T06:02:29.939Z,17.44
2022-09-06T06:03:30.325Z,17.46
2022-09-06T06:04:29.858Z,17.49
2022-09-06T06:05:29.837Z,17.54
2022-09-06T06:06:29.837Z,17.55
2022-09-06T06:07:29.815Z,17.62
2022-09-06T06:08:29.805Z,17.64
2022-09-06T06:09:30.219Z,17.68
2022-09-06T06:10:29.776Z,17.71
2022-09-06T06:11:29.768Z,17.74
2022-09-06T06:12:29.744Z,17.68
2022-09-06T06:13:30.106Z,17.68
2022-09-06T06:14:29.725Z,17.74
2022-09-06T06:15:29.716Z,17.78
2022-09-06T06:16:29.726Z,17.82
2022-09-06T06:17:29.686Z,17.90
2022-09-06T06:18:29.668Z,17.90
2022-09-06T06:19:30.015Z,17.87
2022-09-06T06:20:29.643Z,17.86
2022-09-06T06:21:29.676Z,17.89
2022-09-06T06:22:29.644Z,17.90
2022-09-06T06:23:30.017Z,17.97
2022-09-06T06:24:29.597Z,18.05
2022-09-06T06:25:29.578Z,18.11
2022-09-06T06:26:29.570Z,18.15
2022-09-06T06:27:29.564Z,18.23
2022-09-06T06:28:29.998Z,18.27
2022-09-06T06:29:29.548Z,18.35
2022-09-06T06:30:29.508Z,18.39
2022-09-06T06:31:29.561Z,18.45
2022-09-06T06:32:29.487Z,18.48
2022-09-06T06:33:29.515Z,18.57
2022-09-06T06:34:29.486Z,18.65
2022-09-06T06:35:29.462Z,18.69
2022-09-06T06:36:29.448Z,18.73
2022-09-06T06:37:29.425Z,18.78
2022-09-06T06:38:29.563Z,18.82
2022-09-06T06:39:29.454Z,18.88
2022-09-06T06:40:29.388Z,18.92
2022-09-06T06:41:29.382Z,18.92
2022-09-06T06:42:29.354Z,18.95
2022-09-06T06:43:29.686Z,18.99
2022-09-06T06:44:29.350Z,19.04
2022-09-06T06:45:29.401Z,19.13
2022-09-06T06:46:29.309Z,19.14
2022-09-06T06:47:29.301Z,19.62
2022-09-06T06:48:29.729Z,20.24
2022-09-06T06:49:29.272Z,20.85
2022-09-06T06:50:29.262Z,21.03
2022-09-06T06:51:29.280Z,21.37
2022-09-06T06:52:29.240Z,21.69
2022-09-06T06:53:29.253Z,21.98
2022-09-06T06:54:29.211Z,22.51
2022-09-06T06:55:29.216Z,22.82
2022-09-06T06:56:29.189Z,23.27
2022-09-06T06:57:29.173Z,23.65
2022-09-06T06:58:29.295Z,23.98
2022-09-06T06:59:29.141Z,24.20
2022-09-06T07:00:29.167Z,24.10
2022-09-06T07:01:29.255Z,24.09
2022-09-06T07:02:29.319Z,24.43
2022-09-06T07:03:29.499Z,24.61
2022-09-06T07:04:29.083Z,24.64
2022-09-06T07:07:30.165Z,24.45
2022-09-06T07:08:29.363Z,24.45
2022-09-06T07:10:33.403Z,23.65
2022-09-06T07:11:28.997Z,23.17
2022-09-06T07:12:29.016Z,23.33
2022-09-06T07:13:29.478Z,23.42
2022-09-06T07:14:28.982Z,23.36
2022-09-06T07:15:28.933Z,23.17
2022-09-06T07:16:28.951Z,23.01
2022-09-06T07:17:28.923Z,22.97
2022-09-06T07:18:28.892Z,22.97
2022-09-06T07:20:30.074Z,23.31
2022-09-06T07:22:29.852Z,23.02
2022-09-06T07:24:29.823Z,22.83
2022-09-06T07:25:28.824Z,22.80
2022-09-06T07:26:28.812Z,22.80
2022-09-06T07:27:50.132Z,22.90
2022-09-06T07:28:30.356Z,22.83
2022-09-06T07:29:28.763Z,22.65
2022-09-06T07:30:28.752Z,22.60
2022-09-06T07:32:29.724Z,22.55
2022-09-06T07:33:28.852Z,22.68
2022-09-06T07:34:28.696Z,22.83
2022-09-06T07:35:28.693Z,22.94
2022-09-06T07:36:28.689Z,22.95
2022-09-06T07:37:28.659Z,22.97
2022-09-06T07:38:29.006Z,23.16
2022-09-06T07:39:28.650Z,23.38
2022-09-06T07:40:28.620Z,23.63
2022-09-06T07:41:28.605Z,23.55
2022-09-06T07:42:31.697Z,23.13
2022-09-06T07:43:30.026Z,22.98
2022-09-06T07:44:28.580Z,23.13
2022-09-06T07:45:28.562Z,23.38
2022-09-06T07:46:28.580Z,23.51
2022-09-06T07:47:57.445Z,23.58
2022-09-06T07:48:29.555Z,23.60
2022-09-06T07:49:32.912Z,23.72
2022-09-06T07:51:29.486Z,23.39
2022-09-06T07:53:31.290Z,23.63
2022-09-06T07:54:31.054Z,23.58
2022-09-06T07:55:28.433Z,23.65
2022-09-06T07:56:28.418Z,23.88
2022-09-06T07:57:28.402Z,23.87
2022-09-06T07:58:28.723Z,23.78
2022-09-06T07:59:28.374Z,23.47
2022-09-06T08:00:28.361Z,23.01
2022-09-06T08:01:28.429Z,22.70
2022-09-06T08:02:28.403Z,22.68
2022-09-06T08:03:28.890Z,22.62
2022-09-06T08:04:28.313Z,22.76
2022-09-06T08:06:29.462Z,23.09
2022-09-06T08:07:40.974Z,23.32
2022-09-06T08:08:57.887Z,23.32
2022-09-06T08:09:29.269Z,23.25
2022-09-06T08:10:28.232Z,23.22
2022-09-06T08:11:28.232Z,23.22
2022-09-06T08:12:28.211Z,23.35
2022-09-06T08:13:28.306Z,23.47
2022-09-06T08:14:28.183Z,23.50
2022-09-06T08:15:28.172Z,23.58
2022-09-06T08:16:28.192Z,23.68
2022-09-06T08:17:28.176Z,23.69
2022-09-06T08:18:28.143Z,23.73
2022-09-06T08:19:28.153Z,23.79
2022-09-06T08:20:28.103Z,23.91
2022-09-06T08:21:28.111Z,23.91
2022-09-06T08:22:28.081Z,23.93
2022-09-06T08:23:28.267Z,23.93
2022-09-06T08:24:28.061Z,23.55
2022-09-06T08:25:28.052Z,23.33
2022-09-06T08:26:28.031Z,23.27
2022-09-06T08:27:28.022Z,23.19
2022-09-06T08:28:29.008Z,23.13
2022-09-06T08:29:27.997Z,23.09
2022-09-06T08:30:27.985Z,23.01
2022-09-06T08:31:28.026Z,22.95
2022-09-06T08:32:27.956Z,22.92
2022-09-06T08:33:28.506Z,22.94
2022-09-06T08:34:27.943Z,22.86
2022-09-06T08:35:27.919Z,22.91
2022-09-06T08:36:27.904Z,23.01
2022-09-06T08:37:27.901Z,23.16
2022-09-06T08:38:27.883Z,23.23
2022-09-06T08:39:27.911Z,23.28
2022-09-06T08:40:27.860Z,23.32
2022-09-06T08:41:27.858Z,23.39
2022-09-06T08:42:27.851Z,23.42
2022-09-06T08:43:28.208Z,23.53
2022-09-06T08:44:56.433Z,23.63
2022-09-06T08:45:28.802Z,23.68
2022-09-06T08:46:27.796Z,23.35
2022-09-06T08:47:27.870Z,23.09
2022-09-06T08:48:28.291Z,22.97
2022-09-06T08:49:27.765Z,22.98
2022-09-06T08:50:27.732Z,22.94
2022-09-06T08:51:27.730Z,23.02
2022-09-06T08:52:27.703Z,23.19
2022-09-06T08:53:27.699Z,23.35
2022-09-06T08:54:28.162Z,23.33
2022-09-06T08:55:27.682Z,23.32
2022-09-06T08:56:27.653Z,23.40
2022-09-06T08:57:27.754Z,23.50
2022-09-06T08:58:27.680Z,23.63
2022-09-06T08:59:27.952Z,23.75
2022-09-06T09:00:27.694Z,23.87
2022-09-06T09:01:27.590Z,24.03
2022-09-06T09:02:27.651Z,24.10
2022-09-06T09:03:27.560Z,24.15
2022-09-06T09:04:28.000Z,24.28
2022-09-06T09:05:27.532Z,24.47
2022-09-06T09:06:27.529Z,24.67
2022-09-06T09:07:27.534Z,24.80
2022-09-06T09:08:27.629Z,24.88
2022-09-06T09:09:27.919Z,24.99
2022-09-06T09:10:27.470Z,25.14
2022-09-06T09:11:27.459Z,25.28
2022-09-06T09:12:27.451Z,25.18
2022-09-06T09:13:27.445Z,25.27
2022-09-06T09:14:27.865Z,25.38
2022-09-06T09:15:27.418Z,25.40
2022-09-06T09:16:27.478Z,25.38
2022-09-06T09:17:27.382Z,25.52
2022-09-06T09:18:27.522Z,25.67
2022-09-06T09:19:27.792Z,25.82
2022-09-06T09:20:27.350Z,25.94
2022-09-06T09:21:30.415Z,26.10
2022-09-06T09:22:27.441Z,26.18
2022-09-06T09:23:27.319Z,26.40
2022-09-06T09:24:27.640Z,26.36
2022-09-06T09:25:27.281Z,26.40
2022-09-06T09:26:27.281Z,26.35
2022-09-06T09:27:27.263Z,26.28
2022-09-06T09:28:27.318Z,26.30
2022-09-06T09:29:29.473Z,26.40
2022-09-06T09:30:49.543Z,26.51
2022-09-06T09:31:28.268Z,26.57
2022-09-06T09:32:27.199Z,26.58
2022-09-06T09:33:27.182Z,26.55
2022-09-06T09:34:27.542Z,26.66
2022-09-06T09:35:27.153Z,26.70
2022-09-06T09:36:27.157Z,26.73
2022-09-06T09:37:49.330Z,26.70
2022-09-06T09:38:28.233Z,26.66
2022-09-06T09:39:27.129Z,26.50
2022-09-06T09:40:27.481Z,26.36
2022-09-06T09:41:27.078Z,26.33
2022-09-06T09:42:27.082Z,26.33
2022-09-06T09:43:27.052Z,26.29
2022-09-06T09:44:27.051Z,26.26
2022-09-06T09:45:27.427Z,26.26
2022-09-06T09:46:27.062Z,26.30
2022-09-06T09:47:27.012Z,26.29
2022-09-06T09:48:27.159Z,26.15
2022-09-06T09:49:26.982Z,26.15
2022-09-06T09:50:27.399Z,26.12
2022-09-06T09:51:27.596Z,26.02
2022-09-06T09:52:26.940Z,25.99
2022-09-06T09:53:26.991Z,25.98
2022-09-06T09:54:26.910Z,26.02
2022-09-06T09:55:28.110Z,26.02
2022-09-06T09:56:26.891Z,26.05
2022-09-06T09:57:26.872Z,26.10
2022-09-06T09:58:26.888Z,26.13
2022-09-06T09:59:26.859Z,26.17
2022-09-06T10:00:26.881Z,26.21
2022-09-06T10:01:26.864Z,26.28
2022-09-06T10:02:26.853Z,26.30
2022-09-06T10:03:26.914Z,26.25
2022-09-06T10:05:28.168Z,26.15
2022-09-06T10:07:27.761Z,26.05
2022-09-06T10:08:26.820Z,26.12
2022-09-06T10:09:26.710Z,26.17
2022-09-06T10:10:27.169Z,26.21
2022-09-06T10:11:26.707Z,26.28
2022-09-06T10:12:26.689Z,26.26
2022-09-06T10:13:26.678Z,26.23
2022-09-06T10:14:26.651Z,26.25
2022-09-06T10:15:26.649Z,26.25
2022-09-06T10:16:27.109Z,26.33
2022-09-06T10:17:26.611Z,26.39
2022-09-06T10:18:26.609Z,26.43
2022-09-06T10:19:26.610Z,26.47
2022-09-06T10:20:26.572Z,26.39
2022-09-06T10:21:26.954Z,26.37
2022-09-06T10:22:26.550Z,26.35
2022-09-06T10:24:27.994Z,26.32
2022-09-06T10:25:26.508Z,26.33
2022-09-06T10:26:26.858Z,26.36
2022-09-06T10:27:26.487Z,26.45
2022-09-06T10:28:26.588Z,26.55
2022-09-06T10:29:26.467Z,26.66
2022-09-06T10:30:26.455Z,26.75
2022-09-06T10:31:26.470Z,26.85
2022-09-06T10:32:30.794Z,26.97
2022-09-06T10:33:26.440Z,27.10
2022-09-06T10:34:26.400Z,27.25
2022-09-06T10:35:26.381Z,27.41
2022-09-06T10:36:26.385Z,27.59
2022-09-06T10:37:26.749Z,27.75
2022-09-06T10:38:26.418Z,27.82
2022-09-06T10:39:26.360Z,27.79
2022-09-06T10:40:26.321Z,27.81
2022-09-06T10:41:26.303Z,27.90
2022-09-06T10:42:26.739Z,27.97
2022-09-06T10:43:26.294Z,27.99
2022-09-06T10:44:26.282Z,27.92
2022-09-06T10:45:26.250Z,27.94
2022-09-06T10:46:26.768Z,28.17
2022-09-06T10:47:26.230Z,28.41
2022-09-06T10:48:26.297Z,28.74
2022-09-06T10:49:26.210Z,29.05
2022-09-06T10:50:26.208Z,29.24
2022-09-06T10:51:26.181Z,29.26
2022-09-06T10:52:26.580Z,29.19
2022-09-06T10:53:26.160Z,29.31
2022-09-06T10:54:26.153Z,29.48
2022-09-06T10:55:26.130Z,29.43
2022-09-06T10:56:26.130Z,29.53
2022-09-06T10:58:27.680Z,29.78
2022-09-06T10:59:38.921Z,30.04
2022-09-06T11:00:27.069Z,30.15
2022-09-06T11:01:26.098Z,30.17
2022-09-06T11:02:26.464Z,30.24
2022-09-06T11:03:58.330Z,30.04
2022-09-06T11:04:27.060Z,29.90
2022-09-06T11:05:40.400Z,29.76
2022-09-06T11:06:28.731Z,29.94
2022-09-06T11:07:26.061Z,30.02
2022-09-06T11:08:48.258Z,30.19
2022-09-06T11:09:26.950Z,30.17
2022-09-06T11:10:25.949Z,30.00
2022-09-06T11:11:25.931Z,29.95
2022-09-06T11:12:25.920Z,29.95
2022-09-06T11:13:26.247Z,29.86
2022-09-06T11:14:25.889Z,29.98
2022-09-06T11:15:25.880Z,30.02
2022-09-06T11:16:25.963Z,30.07
2022-09-06T11:17:25.860Z,30.22
2022-09-06T11:18:26.101Z,30.22
2022-09-06T11:19:25.830Z,30.29
2022-09-06T11:20:29.911Z,30.32
2022-09-06T11:21:26.811Z,30.37
2022-09-06T11:22:25.821Z,30.32
2022-09-06T11:23:26.265Z,30.35
2022-09-06T11:24:25.771Z,30.34
2022-09-06T11:25:25.761Z,30.27
2022-09-06T11:26:25.761Z,30.32
2022-09-06T11:27:25.746Z,30.16
2022-09-06T11:28:25.763Z,30.08
2022-09-06T11:29:25.713Z,29.85
2022-09-06T11:30:25.702Z,29.87
2022-09-06T11:32:26.921Z,30.04
2022-09-06T11:33:25.794Z,30.05
2022-09-06T11:34:25.660Z,29.97
2022-09-06T11:35:25.651Z,29.95
2022-09-06T11:36:25.621Z,29.90
2022-09-06T11:37:25.701Z,29.95
2022-09-06T11:38:25.988Z,29.90
2022-09-06T11:40:27.885Z,29.97
2022-09-06T11:41:25.566Z,29.92
2022-09-06T11:42:25.657Z,29.94
2022-09-06T11:43:25.887Z,29.97
2022-09-06T11:44:25.531Z,29.86
2022-09-06T11:45:27.239Z,29.74
2022-09-06T11:46:25.530Z,29.63
2022-09-06T11:47:25.490Z,29.55
2022-09-06T11:48:25.484Z,29.48
2022-09-06T11:49:25.902Z,29.45
2022-09-06T11:50:25.451Z,29.51
2022-09-06T11:51:25.455Z,29.49
2022-09-06T11:52:25.428Z,29.41
2022-09-06T11:53:25.832Z,29.49
2022-09-06T11:54:25.414Z,29.46
2022-09-06T11:55:25.391Z,29.51
2022-09-06T11:56:25.393Z,29.58
2022-09-06T11:57:25.443Z,29.64
2022-09-06T11:58:25.791Z,29.73
2022-09-06T11:59:25.343Z,29.76
2022-09-06T12:00:25.342Z,29.76
2022-09-06T12:01:25.319Z,29.74
2022-09-06T12:02:25.420Z,29.78
2022-09-06T12:04:26.302Z,29.78
2022-09-06T12:05:25.272Z,29.85
2022-09-06T12:06:25.254Z,29.87
2022-09-06T12:07:25.272Z,29.95
2022-09-06T12:08:25.283Z,29.98
2022-09-06T12:09:25.730Z,29.95
2022-09-06T12:10:25.215Z,30.01
2022-09-06T12:11:28.026Z,30.00
2022-09-06T12:12:26.183Z,30.05
2022-09-06T12:13:25.201Z,30.00
2022-09-06T12:14:25.162Z,29.85
2022-09-06T12:15:25.179Z,29.76
2022-09-06T12:16:25.229Z,29.57
2022-09-06T12:17:25.114Z,29.57
2022-09-06T12:18:25.501Z,29.64
2022-09-06T12:19:25.089Z,29.63
2022-09-06T12:20:25.082Z,29.70
2022-09-06T12:21:25.062Z,29.74
2022-09-06T12:22:25.062Z,29.79
2022-09-06T12:23:25.351Z,29.79
2022-09-06T12:24:25.029Z,29.85
2022-09-06T12:25:25.023Z,30.01
2022-09-06T12:26:25.002Z,30.11
2022-09-06T12:27:24.995Z,30.19
2022-09-06T12:28:24.981Z,30.16
2022-09-06T12:29:25.372Z,30.27
2022-09-06T12:30:24.952Z,30.46
2022-09-06T12:31:25.024Z,30.69
2022-09-06T12:32:24.932Z,30.82
2022-09-06T12:33:25.325Z,30.95
2022-09-06T12:34:24.903Z,30.98
2022-09-06T12:36:25.883Z,30.94
2022-09-06T12:37:24.873Z,30.91
2022-09-06T12:38:25.046Z,30.80
2022-09-06T12:39:24.897Z,30.72
2022-09-06T12:40:24.843Z,30.65
2022-09-06T12:41:24.816Z,30.57
2022-09-06T12:42:24.805Z,30.67
2022-09-06T12:43:25.117Z,30.43
2022-09-06T12:44:24.783Z,30.11
2022-09-06T12:45:27.411Z,30.05
2022-09-06T12:46:24.845Z,30.13
2022-09-06T12:47:24.754Z,30.11
2022-09-06T12:48:25.084Z,29.92
2022-09-06T12:49:25.703Z,29.85
2022-09-06T12:50:24.718Z,29.82
2022-09-06T12:51:24.693Z,29.87
2022-09-06T12:52:24.763Z,29.85
2022-09-06T12:53:25.042Z,29.86
2022-09-06T12:54:24.664Z,30.02
2022-09-06T12:55:24.648Z,30.15
2022-09-06T12:56:24.635Z,30.39
2022-09-06T12:57:24.820Z,30.46
2022-09-06T12:58:25.034Z,30.58
2022-09-06T12:59:24.607Z,30.70
2022-09-06T13:00:24.582Z,30.82
2022-09-06T13:01:24.725Z,30.92
2022-09-06T13:02:24.644Z,31.14
2022-09-06T13:03:24.897Z,31.28
2022-09-06T13:04:24.546Z,31.32
2022-09-06T13:05:24.513Z,31.46
2022-09-06T13:06:26.839Z,31.41
2022-09-06T13:07:24.494Z,31.32
2022-09-06T13:08:24.587Z,31.23
2022-09-06T13:09:24.471Z,31.14
2022-09-06T13:10:24.485Z,30.94